createdAt,value
2022-08-23T00:00:13.499Z,0.00
2022-08-23T00:01:04.871Z,0.00
2022-08-23T00:02:04.870Z,0.00
2022-08-23T00:03:04.968Z,0.00
2022-08-23T00:04:04.881Z,0.00
2022-08-23T00:05:08.806Z,0.00
2022-08-23T00:06:04.882Z,0.00
2022-08-23T00:07:04.883Z,0.00
2022-08-23T00:08:04.886Z,0.00
2022-08-23T00:09:04.890Z,0.00
2022-08-23T00:10:04.888Z,0.00
2022-08-23T00:11:04.888Z,0.00
2022-08-23T00:12:04.895Z,0.00
2022-08-23T00:13:04.897Z,0.00
2022-08-23T00:14:04.895Z,0.00
2022-08-23T00:15:04.897Z,0.00
2022-08-23T00:16:04.900Z,0.00
2022-08-23T00:17:04.901Z,0.00
2022-08-23T00:18:04.910Z,0.00
2022-08-23T00:19:04.904Z,0.00
2022-08-23T00:20:04.908Z,0.00
2022-08-23T00:21:04.908Z,0.00
2022-08-23T00:22:04.909Z,0.00
2022-08-23T00:23:04.913Z,0.00
2022-08-23T00:24:04.916Z,0.00
2022-08-23T00:25:04.922Z,0.00
2022-08-23T00:26:04.917Z,0.00
2022-08-23T00:27:04.929Z,0.00
2022-08-23T00:28:04.926Z,0.00
2022-08-23T00:29:04.928Z,0.00
2022-08-23T00:30:04.929Z,0.00
2022-08-23T00:31:04.928Z,0.00
2022-08-23T00:32:04.933Z,0.00
2022-08-23T00:33:04.933Z,0.00
2022-08-23T00:34:04.935Z,0.00
2022-08-23T00:35:04.934Z,0.00
2022-08-23T00:36:04.937Z,0.00
2022-08-23T00:37:04.939Z,0.00
2022-08-23T00:38:32.625Z,0.00
2022-08-23T00:39:04.942Z,0.00
2022-08-23T00:40:05.009Z,0.00
2022-08-23T00:41:04.948Z,0.00
2022-08-23T00:42:04.971Z,0.00
2022-08-23T00:43:06.103Z,0.00
2022-08-23T00:44:04.956Z,0.00
2022-08-23T00:45:04.956Z,0.00
2022-08-23T00:46:04.963Z,0.00
2022-08-23T00:47:04.955Z,0.00
2022-08-23T00:48:04.959Z,0.00
2022-08-23T00:49:05.158Z,0.00
2022-08-23T00:50:04.963Z,0.00
2022-08-23T00:51:04.960Z,0.00
2022-08-23T00:52:04.967Z,0.00
2022-08-23T00:53:04.974Z,0.00
2022-08-23T00:54:04.968Z,0.00
2022-08-23T00:55:04.970Z,0.00
2022-08-23T00:56:04.972Z,0.00
2022-08-23T00:57:04.974Z,0.00
2022-08-23T00:58:04.973Z,0.00
2022-08-23T00:59:04.974Z,0.00
2022-08-23T01:00:04.981Z,0.00
2022-08-23T01:01:04.981Z,0.00
2022-08-23T01:02:05.055Z,0.00
2022-08-23T01:03:05.010Z,0.00
2022-08-23T01:04:05.326Z,0.00
2022-08-23T01:05:04.989Z,0.00
2022-08-23T01:06:04.996Z,0.00
2022-08-23T01:07:04.990Z,0.00
2022-08-23T01:08:04.995Z,0.00
2022-08-23T01:09:04.996Z,0.00
2022-08-23T01:10:04.997Z,0.00
2022-08-23T01:11:08.723Z,0.00
2022-08-23T01:12:04.996Z,0.00
2022-08-23T01:13:04.997Z,0.00
2022-08-23T01:14:05.002Z,0.00
2022-08-23T01:15:05.010Z,0.00
2022-08-23T01:16:05.002Z,0.00
2022-08-23T01:17:05.008Z,0.00
2022-08-23T01:18:05.004Z,0.00
2022-08-23T01:19:05.004Z,0.00
2022-08-23T01:20:05.009Z,0.00
2022-08-23T01:21:05.010Z,0.00
2022-08-23T01:22:05.011Z,0.00
2022-08-23T01:23:05.010Z,0.00
2022-08-23T01:24:05.015Z,0.00
2022-08-23T01:25:07.428Z,0.00
2022-08-23T01:26:05.020Z,0.00
2022-08-23T01:27:05.017Z,0.00
2022-08-23T01:28:05.018Z,0.00
2022-08-23T01:29:05.021Z,0.00
2022-08-23T01:30:05.022Z,0.00
2022-08-23T01:31:06.574Z,0.00
2022-08-23T01:32:05.025Z,0.00
2022-08-23T01:33:05.027Z,0.00
2022-08-23T01:34:05.024Z,0.00
2022-08-23T01:35:05.024Z,0.00
2022-08-23T01:36:05.028Z,0.00
2022-08-23T01:37:05.033Z,0.00
2022-08-23T01:38:05.032Z,0.00
2022-08-23T01:39:05.030Z,0.00
2022-08-23T01:40:05.151Z,0.00
2022-08-23T01:41:05.034Z,0.00
2022-08-23T01:42:07.482Z,0.00
2022-08-23T01:43:05.035Z,0.00
2022-08-23T01:44:05.047Z,0.00
2022-08-23T01:45:05.041Z,0.00
2022-08-23T01:46:05.043Z,0.00
2022-08-23T01:47:05.040Z,0.00
2022-08-23T01:48:05.046Z,0.00
2022-08-23T01:49:08.139Z,0.00
2022-08-23T01:50:05.049Z,0.00
2022-08-23T01:51:05.049Z,0.00
2022-08-23T01:52:05.051Z,0.00
2022-08-23T01:53:05.050Z,0.00
2022-08-23T01:54:05.402Z,0.00
2022-08-23T01:55:05.051Z,0.00
2022-08-23T01:56:05.053Z,0.00
2022-08-23T01:57:05.055Z,0.00
2022-08-23T01:58:05.057Z,0.00
2022-08-23T01:59:05.061Z,0.00
2022-08-23T02:00:05.056Z,0.00
2022-08-23T02:01:05.060Z,0.00
2022-08-23T02:02:05.194Z,0.00
2022-08-23T02:03:05.059Z,0.00
2022-08-23T02:04:05.452Z,0.00
2022-08-23T02:05:05.064Z,0.00
2022-08-23T02:06:05.144Z,0.00
2022-08-23T02:07:05.069Z,0.00
2022-08-23T02:08:05.073Z,0.00
2022-08-23T02:09:05.067Z,0.00
2022-08-23T02:10:05.069Z,0.00
2022-08-23T02:11:05.071Z,0.00
2022-08-23T02:12:05.079Z,0.00
2022-08-23T02:13:05.075Z,0.00
2022-08-23T02:14:05.076Z,0.00
2022-08-23T02:15:05.076Z,0.00
2022-08-23T02:16:05.077Z,0.00
2022-08-23T02:17:05.187Z,0.00
2022-08-23T02:18:05.081Z,0.00
2022-08-23T02:19:05.077Z,0.00
2022-08-23T02:20:05.090Z,0.00
2022-08-23T02:21:05.124Z,0.00
2022-08-23T02:22:05.086Z,0.00
2022-08-23T02:23:05.086Z,0.00
2022-08-23T02:24:05.087Z,0.00
2022-08-23T02:25:05.085Z,0.00
2022-08-23T02:26:05.087Z,0.00
2022-08-23T02:27:05.245Z,0.00
2022-08-23T02:28:05.088Z,0.00
2022-08-23T02:29:05.091Z,0.00
2022-08-23T02:30:05.205Z,0.00
2022-08-23T02:31:05.090Z,0.00
2022-08-23T02:32:05.093Z,0.00
2022-08-23T02:33:05.093Z,0.00
2022-08-23T02:34:05.096Z,0.00
2022-08-23T02:35:06.018Z,0.00
2022-08-23T02:36:05.169Z,0.00
2022-08-23T02:37:05.101Z,0.00
2022-08-23T02:38:05.100Z,0.00
2022-08-23T02:39:05.098Z,0.00
2022-08-23T02:40:05.175Z,0.00
2022-08-23T02:41:05.101Z,0.00
2022-08-23T02:42:05.104Z,0.00
2022-08-23T02:43:05.110Z,0.00
2022-08-23T02:44:05.105Z,0.00
2022-08-23T02:45:05.107Z,0.00
2022-08-23T02:46:05.107Z,0.00
2022-08-23T02:47:05.116Z,0.00
2022-08-23T02:48:05.109Z,0.00
2022-08-23T02:49:05.109Z,0.00
2022-08-23T02:50:05.111Z,0.00
2022-08-23T02:51:05.110Z,0.00
2022-08-23T02:52:05.117Z,0.00
2022-08-23T02:53:05.113Z,0.00
2022-08-23T02:54:05.124Z,0.00
2022-08-23T02:55:05.123Z,0.00
2022-08-23T02:56:05.124Z,0.00
2022-08-23T02:57:05.118Z,0.00
2022-08-23T02:58:05.118Z,0.00
2022-08-23T02:59:05.128Z,0.00
2022-08-23T03:00:05.128Z,0.00
2022-08-23T03:01:05.165Z,0.00
2022-08-23T03:02:05.186Z,0.00
2022-08-23T03:03:05.125Z,0.00
2022-08-23T03:04:05.122Z,0.00
2022-08-23T03:05:05.126Z,0.00
2022-08-23T03:06:25.740Z,0.00
2022-08-23T03:07:05.125Z,0.00
2022-08-23T03:08:05.125Z,0.00
2022-08-23T03:09:05.126Z,0.00
2022-08-23T03:10:05.139Z,0.00
2022-08-23T03:11:05.672Z,0.00
2022-08-23T03:12:05.136Z,0.00
2022-08-23T03:13:05.133Z,0.00
2022-08-23T03:14:05.130Z,0.00
2022-08-23T03:15:05.737Z,0.00
2022-08-23T03:16:05.133Z,0.00
2022-08-23T03:17:05.137Z,0.00
2022-08-23T03:18:05.136Z,0.00
2022-08-23T03:19:05.138Z,0.00
2022-08-23T03:20:05.154Z,0.00
2022-08-23T03:21:05.139Z,0.00
2022-08-23T03:22:05.139Z,0.00
2022-08-23T03:23:05.138Z,0.00
2022-08-23T03:24:09.998Z,0.00
2022-08-23T03:25:05.144Z,0.00
2022-08-23T03:26:05.140Z,0.00
2022-08-23T03:27:05.144Z,0.00
2022-08-23T03:28:05.141Z,0.00
2022-08-23T03:29:05.157Z,0.00
2022-08-23T03:30:05.149Z,0.00
2022-08-23T03:31:05.148Z,0.00
2022-08-23T03:32:05.144Z,0.00
2022-08-23T03:33:05.155Z,0.00
2022-08-23T03:34:05.146Z,0.00
2022-08-23T03:35:05.150Z,0.00
2022-08-23T03:36:05.150Z,0.00
2022-08-23T03:37:05.153Z,0.00
2022-08-23T03:38:05.148Z,0.00
2022-08-23T03:39:05.154Z,0.00
2022-08-23T03:40:05.201Z,0.00
2022-08-23T03:41:05.157Z,0.00
2022-08-23T03:42:05.153Z,0.00
2022-08-23T03:43:05.158Z,0.00
2022-08-23T03:44:05.159Z,0.00
2022-08-23T03:45:05.157Z,0.00
2022-08-23T03:46:05.169Z,0.00
2022-08-23T03:47:05.167Z,0.00
2022-08-23T03:48:05.155Z,0.00
2022-08-23T03:49:05.159Z,0.00
2022-08-23T03:50:05.161Z,0.00
2022-08-23T03:51:05.164Z,0.00
2022-08-23T03:52:05.161Z,0.00
2022-08-23T03:53:05.166Z,0.00
2022-08-23T03:54:05.525Z,0.00
2022-08-23T03:55:05.170Z,0.00
2022-08-23T03:56:05.184Z,0.00
2022-08-23T03:57:05.164Z,0.00
2022-08-23T03:58:05.168Z,0.00
2022-08-23T03:59:05.168Z,0.00
2022-08-23T04:00:05.166Z,0.00
2022-08-23T04:01:05.168Z,0.00
2022-08-23T04:02:05.286Z,0.00
2022-08-23T04:03:05.173Z,0.00
2022-08-23T04:04:05.179Z,0.00
2022-08-23T04:05:05.168Z,0.00
2022-08-23T04:06:05.167Z,0.00
2022-08-23T04:07:05.167Z,0.00
2022-08-23T04:08:05.170Z,0.00
2022-08-23T04:09:05.172Z,0.00
2022-08-23T04:10:05.170Z,0.00
2022-08-23T04:11:05.179Z,0.00
2022-08-23T04:12:05.170Z,0.00
2022-08-23T04:13:05.175Z,0.00
2022-08-23T04:14:05.172Z,0.00
2022-08-23T04:15:05.177Z,4.00
2022-08-23T04:16:05.176Z,0.00
2022-08-23T04:17:05.174Z,0.00
2022-08-23T04:18:05.175Z,0.00
2022-08-23T04:19:05.175Z,4.00
2022-08-23T04:20:05.175Z,4.00
2022-08-23T04:21:05.196Z,0.00
2022-08-23T04:22:05.175Z,4.00
2022-08-23T04:23:05.187Z,4.00
2022-08-23T04:24:05.177Z,4.00
2022-08-23T04:25:05.184Z,4.00
2022-08-23T04:26:05.178Z,8.00
2022-08-23T04:27:05.179Z,4.00
2022-08-23T04:28:05.191Z,4.00
2022-08-23T04:29:05.186Z,8.00
2022-08-23T04:30:05.181Z,4.00
2022-08-23T04:31:05.185Z,8.00
2022-08-23T04:32:07.689Z,8.00
2022-08-23T04:33:09.927Z,8.00
2022-08-23T04:34:05.211Z,12.00
2022-08-23T04:35:05.190Z,12.00
2022-08-23T04:36:05.183Z,12.00
2022-08-23T04:37:07.397Z,16.00
2022-08-23T04:38:18.200Z,12.00
2022-08-23T04:39:05.191Z,16.00
2022-08-23T04:40:05.281Z,16.00
2022-08-23T04:41:05.188Z,16.00
2022-08-23T04:42:05.185Z,20.00
2022-08-23T04:43:05.186Z,20.00
2022-08-23T04:44:05.186Z,20.00
2022-08-23T04:45:05.187Z,20.00
2022-08-23T04:46:05.188Z,20.00
2022-08-23T04:47:05.187Z,24.00
2022-08-23T04:48:05.191Z,24.00
2022-08-23T04:49:05.189Z,28.00
2022-08-23T04:50:05.198Z,28.00
2022-08-23T04:51:05.192Z,28.00
2022-08-23T04:52:05.190Z,28.00
2022-08-23T04:53:05.199Z,28.00
2022-08-23T04:54:05.340Z,36.00
2022-08-23T04:55:05.190Z,36.00
2022-08-23T04:56:05.199Z,36.00
2022-08-23T04:57:05.200Z,36.00
2022-08-23T04:58:05.196Z,40.00
2022-08-23T04:59:05.196Z,40.00
2022-08-23T05:00:05.193Z,40.00
2022-08-23T05:01:05.273Z,44.00
2022-08-23T05:02:05.195Z,44.00
2022-08-23T05:03:05.199Z,48.00
2022-08-23T05:04:05.196Z,52.00
2022-08-23T05:05:05.202Z,52.00
2022-08-23T05:06:05.247Z,56.00
2022-08-23T05:07:05.227Z,64.00
2022-08-23T05:08:05.197Z,60.00
2022-08-23T05:09:05.197Z,64.00
2022-08-23T05:10:05.195Z,64.00
2022-08-23T05:11:05.213Z,68.00
2022-08-23T05:12:05.199Z,68.00
2022-08-23T05:13:05.209Z,68.00
2022-08-23T05:14:05.203Z,68.00
2022-08-23T05:15:05.212Z,72.00
2022-08-23T05:16:05.201Z,72.00
2022-08-23T05:17:05.202Z,72.00
2022-08-23T05:18:05.201Z,72.00
2022-08-23T05:19:05.199Z,76.00
2022-08-23T05:20:05.200Z,76.00
2022-08-23T05:21:05.200Z,80.00
2022-08-23T05:22:05.200Z,80.00
2022-08-23T05:23:05.203Z,84.00
2022-08-23T05:24:05.203Z,84.00
2022-08-23T05:25:05.203Z,84.00
2022-08-23T05:26:05.200Z,88.00
2022-08-23T05:27:05.201Z,92.00
2022-08-23T05:28:05.206Z,92.00
2022-08-23T05:29:05.204Z,92.00
2022-08-23T05:30:05.204Z,96.00
2022-08-23T05:31:05.205Z,96.00
2022-08-23T05:32:05.203Z,100.00
2022-08-23T05:33:05.205Z,104.00
2022-08-23T05:34:05.207Z,104.00
2022-08-23T05:35:05.206Z,108.00
2022-08-23T05:36:05.204Z,104.00
2022-08-23T05:37:05.208Z,108.00
2022-08-23T05:38:05.208Z,108.00
2022-08-23T05:39:05.205Z,108.00
2022-08-23T05:40:05.294Z,108.00
2022-08-23T05:41:06.931Z,108.00
2022-08-23T05:42:05.206Z,112.00
2022-08-23T05:43:05.206Z,112.00
2022-08-23T05:44:05.208Z,112.00
2022-08-23T05:45:06.145Z,116.00
2022-08-23T05:46:05.209Z,116.00
2022-08-23T05:47:05.212Z,120.00
2022-08-23T05:48:05.212Z,120.00
2022-08-23T05:49:05.216Z,120.00
2022-08-23T05:50:05.269Z,124.00
2022-08-23T05:51:05.216Z,124.00
2022-08-23T05:52:05.220Z,124.00
2022-08-23T05:53:05.211Z,128.00
2022-08-23T05:54:05.661Z,128.00
2022-08-23T05:55:05.212Z,128.00
2022-08-23T05:56:05.214Z,136.00
2022-08-23T05:57:05.215Z,136.00
2022-08-23T05:58:05.218Z,136.00
2022-08-23T05:59:05.215Z,136.00
2022-08-23T06:00:05.267Z,140.00
2022-08-23T06:01:05.295Z,136.00
2022-08-23T06:02:05.216Z,140.00
2022-08-23T06:03:05.218Z,140.00
2022-08-23T06:04:05.219Z,144.00
2022-08-23T06:05:05.217Z,148.00
2022-08-23T06:06:05.216Z,144.00
2022-08-23T06:07:05.220Z,148.00
2022-08-23T06:08:05.233Z,148.00
2022-08-23T06:09:05.242Z,152.00
2022-08-23T06:10:05.221Z,152.00
2022-08-23T06:11:05.223Z,152.00
2022-08-23T06:12:05.221Z,156.00
2022-08-23T06:13:05.230Z,156.00
2022-08-23T06:14:05.372Z,160.00
2022-08-23T06:15:05.223Z,160.00
2022-08-23T06:16:15.024Z,160.00
2022-08-23T06:17:05.230Z,164.00
2022-08-23T06:18:05.227Z,164.00
2022-08-23T06:19:05.233Z,164.00
2022-08-23T06:20:05.283Z,168.00
2022-08-23T06:21:05.234Z,172.00
2022-08-23T06:22:05.228Z,172.00
2022-08-23T06:23:05.229Z,168.00
2022-08-23T06:24:05.229Z,172.00
2022-08-23T06:25:09.127Z,176.00
2022-08-23T06:26:05.234Z,172.00
2022-08-23T06:27:05.240Z,180.00
2022-08-23T06:28:05.244Z,180.00
2022-08-23T06:29:05.301Z,180.00
2022-08-23T06:30:05.237Z,184.00
2022-08-23T06:31:05.312Z,188.00
2022-08-23T06:32:05.328Z,184.00
2022-08-23T06:33:05.238Z,188.00
2022-08-23T06:34:05.387Z,192.00
2022-08-23T06:35:37.746Z,192.00
2022-08-23T06:36:05.246Z,196.00
2022-08-23T06:37:05.248Z,204.00
2022-08-23T06:38:05.244Z,224.00
2022-08-23T06:39:05.246Z,248.00
2022-08-23T06:40:05.292Z,260.00
2022-08-23T06:41:05.245Z,244.00
2022-08-23T06:42:13.320Z,228.00
2022-08-23T06:43:05.250Z,228.00
2022-08-23T06:44:05.248Z,236.00
2022-08-23T06:45:05.257Z,236.00
2022-08-23T06:46:05.250Z,248.00
2022-08-23T06:47:05.305Z,260.00
2022-08-23T06:48:05.255Z,288.00
2022-08-23T06:49:05.288Z,352.00
2022-08-23T06:50:05.255Z,408.00
2022-08-23T06:51:06.218Z,404.00
2022-08-23T06:52:05.271Z,384.00
2022-08-23T06:53:06.860Z,352.00
2022-08-23T06:54:05.259Z,360.00
2022-08-23T06:55:05.262Z,364.00
2022-08-23T06:56:05.263Z,376.00
2022-08-23T06:57:05.265Z,388.00
2022-08-23T06:58:05.268Z,396.00
2022-08-23T06:59:05.273Z,400.00
2022-08-23T07:00:05.272Z,412.00
2022-08-23T07:01:05.298Z,436.00
2022-08-23T07:02:05.430Z,476.00
2022-08-23T07:03:05.328Z,508.00
2022-08-23T07:04:05.269Z,480.00
2022-08-23T07:05:05.271Z,448.00
2022-08-23T07:06:05.271Z,440.00
2022-08-23T07:07:09.516Z,432.00
2022-08-23T07:08:05.273Z,408.00
2022-08-23T07:09:05.287Z,408.00
2022-08-23T07:10:05.281Z,416.00
2022-08-23T07:11:05.288Z,416.00
2022-08-23T07:12:05.281Z,444.00
2022-08-23T07:13:05.283Z,468.00
2022-08-23T07:14:05.282Z,520.00
2022-08-23T07:15:05.284Z,596.00
2022-08-23T07:16:05.355Z,664.00
2022-08-23T07:17:05.291Z,696.00
2022-08-23T07:18:05.288Z,704.00
2022-08-23T07:19:05.289Z,716.00
2022-08-23T07:20:05.290Z,740.00
2022-08-23T07:21:05.296Z,764.00
2022-08-23T07:22:05.293Z,812.00
2022-08-23T07:23:05.298Z,836.00
2022-08-23T07:24:05.297Z,868.00
2022-08-23T07:25:05.299Z,912.00
2022-08-23T07:26:05.300Z,900.00
2022-08-23T07:27:05.302Z,920.00
2022-08-23T07:28:09.837Z,896.00
2022-08-23T07:29:05.319Z,864.00
2022-08-23T07:30:05.307Z,828.00
2022-08-23T07:31:05.309Z,1112.00
2022-08-23T07:32:05.469Z,1052.00
2022-08-23T07:33:07.372Z,1052.00
2022-08-23T07:34:05.340Z,1028.00
2022-08-23T07:35:05.319Z,880.00
2022-08-23T07:36:05.320Z,760.00
2022-08-23T07:37:11.212Z,740.00
2022-08-23T07:38:05.326Z,728.00
2022-08-23T07:39:05.323Z,692.00
2022-08-23T07:40:05.380Z,660.00
2022-08-23T07:41:05.327Z,632.00
2022-08-23T07:42:22.623Z,624.00
2022-08-23T07:43:05.328Z,608.00
2022-08-23T07:44:05.337Z,624.00
2022-08-23T07:45:05.340Z,632.00
2022-08-23T07:46:05.360Z,640.00
2022-08-23T07:47:05.339Z,664.00
2022-08-23T07:48:05.342Z,616.00
2022-08-23T07:49:05.358Z,1092.00
2022-08-23T07:50:05.348Z,740.00
2022-08-23T07:51:05.350Z,752.00
2022-08-23T07:52:05.351Z,764.00
2022-08-23T07:53:05.353Z,792.00
2022-08-23T07:54:05.653Z,784.00
2022-08-23T07:55:05.353Z,768.00
2022-08-23T07:56:05.362Z,832.00
2022-08-23T07:57:05.360Z,888.00
2022-08-23T07:58:05.367Z,908.00
2022-08-23T07:59:05.377Z,944.00
2022-08-23T08:00:05.373Z,916.00
2022-08-23T08:01:05.370Z,980.00
2022-08-23T08:02:05.487Z,996.00
2022-08-23T08:03:05.448Z,1020.00
2022-08-23T08:04:05.377Z,1072.00
2022-08-23T08:05:05.379Z,1076.00
2022-08-23T08:06:05.385Z,1124.00
2022-08-23T08:07:18.919Z,1164.00
2022-08-23T08:08:05.387Z,1216.00
2022-08-23T08:09:05.388Z,1240.00
2022-08-23T08:10:05.392Z,1296.00
2022-08-23T08:11:05.398Z,1320.00
2022-08-23T08:12:05.400Z,1580.00
2022-08-23T08:13:05.401Z,2628.00
2022-08-23T08:14:05.407Z,2744.00
2022-08-23T08:15:05.405Z,11824.00
2022-08-23T08:16:05.453Z,5444.00
2022-08-23T08:17:05.432Z,3568.00
2022-08-23T08:18:05.429Z,12132.00
2022-08-23T08:19:07.665Z,3452.00
2022-08-23T08:20:05.424Z,8276.00
2022-08-23T08:21:05.426Z,19584.00
2022-08-23T08:22:05.431Z,14304.00
2022-08-23T08:23:05.434Z,8532.00
2022-08-23T08:24:05.450Z,8576.00
2022-08-23T08:25:05.442Z,12888.00
2022-08-23T08:26:05.715Z,21152.00
2022-08-23T08:27:05.451Z,24032.00
2022-08-23T08:28:05.459Z,22432.00
2022-08-23T08:29:05.462Z,20704.00
2022-08-23T08:30:05.468Z,19456.00
2022-08-23T08:31:05.514Z,19168.00
2022-08-23T08:32:05.476Z,11744.00
2022-08-23T08:33:05.479Z,7612.00
2022-08-23T08:34:05.483Z,20448.00
2022-08-23T08:35:05.487Z,24928.00
2022-08-23T08:36:05.514Z,2356.00
2022-08-23T08:37:05.499Z,1128.00
2022-08-23T08:38:05.510Z,1540.00
2022-08-23T08:39:05.508Z,1116.00
2022-08-23T08:40:05.592Z,6088.00
2022-08-23T08:41:05.520Z,1708.00
2022-08-23T08:42:05.586Z,908.00
2022-08-23T08:43:05.528Z,908.00
2022-08-23T08:44:05.537Z,992.00
2022-08-23T08:45:05.539Z,0.00
2022-08-23T08:46:05.575Z,964.00
2022-08-23T08:47:05.549Z,1416.00
2022-08-23T08:48:06.831Z,3580.00
2022-08-23T08:49:05.559Z,4104.00
2022-08-23T08:50:05.567Z,1800.00
2022-08-23T08:51:05.566Z,816.00
2022-08-23T08:52:05.574Z,5196.00
2022-08-23T08:53:05.595Z,3252.00
2022-08-23T08:54:05.832Z,9252.00
2022-08-23T08:55:05.584Z,2412.00
2022-08-23T08:56:05.592Z,848.00
2022-08-23T08:57:05.592Z,576.00
2022-08-23T08:58:05.596Z,524.00
2022-08-23T08:59:05.601Z,460.00
2022-08-23T09:00:05.609Z,428.00
2022-08-23T09:01:05.612Z,400.00
2022-08-23T09:02:05.692Z,404.00
2022-08-23T09:03:05.685Z,396.00
2022-08-23T09:04:05.630Z,384.00
2022-08-23T09:05:05.630Z,396.00
2022-08-23T09:06:05.645Z,396.00
2022-08-23T09:07:05.636Z,380.00
2022-08-23T09:08:05.642Z,372.00
2022-08-23T09:09:05.643Z,368.00
2022-08-23T09:10:05.653Z,360.00
2022-08-23T09:11:06.550Z,364.00
2022-08-23T09:12:05.658Z,360.00
2022-08-23T09:13:05.661Z,348.00
2022-08-23T09:14:05.670Z,340.00
2022-08-23T09:15:05.670Z,312.00
2022-08-23T09:16:05.704Z,332.00
2022-08-23T09:17:05.857Z,332.00
2022-08-23T09:18:05.678Z,328.00
2022-08-23T09:19:05.684Z,332.00
2022-08-23T09:20:05.687Z,328.00
2022-08-23T09:21:05.692Z,332.00
2022-08-23T09:22:05.695Z,344.00
2022-08-23T09:23:05.703Z,336.00
2022-08-23T09:24:05.705Z,312.00
2022-08-23T09:25:05.707Z,308.00
2022-08-23T09:26:05.711Z,308.00
2022-08-23T09:27:05.713Z,296.00
2022-08-23T09:28:05.718Z,300.00
2022-08-23T09:29:05.726Z,300.00
2022-08-23T09:30:05.724Z,296.00
2022-08-23T09:31:08.180Z,300.00
2022-08-23T09:32:05.733Z,296.00
2022-08-23T09:33:05.735Z,296.00
2022-08-23T09:34:05.744Z,296.00
2022-08-23T09:35:06.269Z,292.00
2022-08-23T09:36:05.751Z,288.00
2022-08-23T09:37:05.750Z,284.00
2022-08-23T09:38:05.754Z,284.00
2022-08-23T09:39:05.757Z,284.00
2022-08-23T09:40:05.794Z,280.00
2022-08-23T09:41:05.763Z,280.00
2022-08-23T09:42:05.770Z,288.00
2022-08-23T09:43:05.772Z,288.00
2022-08-23T09:44:05.777Z,292.00
2022-08-23T09:45:05.780Z,284.00
2022-08-23T09:46:05.804Z,284.00
2022-08-23T09:47:05.788Z,292.00
2022-08-23T09:48:05.831Z,288.00
2022-08-23T09:49:05.792Z,276.00
2022-08-23T09:50:05.799Z,280.00
2022-08-23T09:51:05.801Z,284.00
2022-08-23T09:52:05.807Z,284.00
2022-08-23T09:53:06.034Z,280.00
2022-08-23T09:54:06.010Z,276.00
2022-08-23T09:55:05.823Z,280.00
2022-08-23T09:56:05.818Z,272.00
2022-08-23T09:57:05.820Z,268.00
2022-08-23T09:58:05.828Z,272.00
2022-08-23T09:59:05.828Z,268.00
2022-08-23T10:00:05.839Z,260.00
2022-08-23T10:01:05.840Z,260.00
2022-08-23T10:02:05.900Z,260.00
2022-08-23T10:03:05.841Z,256.00
2022-08-23T10:04:05.848Z,256.00
2022-08-23T10:05:05.920Z,244.00
2022-08-23T10:06:05.851Z,228.00
2022-08-23T10:07:05.857Z,236.00
2022-08-23T10:08:10.256Z,252.00
2022-08-23T10:09:05.863Z,256.00
2022-08-23T10:10:05.867Z,256.00
2022-08-23T10:11:05.868Z,256.00
2022-08-23T10:12:07.120Z,256.00
2022-08-23T10:13:05.882Z,252.00
2022-08-23T10:14:05.884Z,268.00
2022-08-23T10:15:06.046Z,272.00
2022-08-23T10:16:05.946Z,276.00
2022-08-23T10:17:05.888Z,276.00
2022-08-23T10:18:05.895Z,272.00
2022-08-23T10:19:05.894Z,256.00
2022-08-23T10:20:05.902Z,248.00
2022-08-23T10:21:06.257Z,256.00
2022-08-23T10:22:05.908Z,260.00
2022-08-23T10:23:05.909Z,260.00
2022-08-23T10:24:05.916Z,252.00
2022-08-23T10:25:06.036Z,260.00
2022-08-23T10:26:05.918Z,264.00
2022-08-23T10:27:05.924Z,268.00
2022-08-23T10:28:05.931Z,264.00
2022-08-23T10:29:05.932Z,264.00
2022-08-23T10:30:05.934Z,260.00
2022-08-23T10:31:06.021Z,256.00
2022-08-23T10:32:05.939Z,256.00
2022-08-23T10:33:05.942Z,252.00
2022-08-23T10:34:05.947Z,248.00
2022-08-23T10:35:05.966Z,244.00
2022-08-23T10:36:05.955Z,244.00
2022-08-23T10:37:05.961Z,244.00
2022-08-23T10:38:05.967Z,244.00
2022-08-23T10:39:05.963Z,244.00
2022-08-23T10:40:06.038Z,240.00
2022-08-23T10:41:05.969Z,240.00
2022-08-23T10:42:05.979Z,236.00
2022-08-23T10:43:05.980Z,232.00
2022-08-23T10:44:05.989Z,236.00
2022-08-23T10:45:05.985Z,228.00
2022-08-23T10:46:06.040Z,228.00
2022-08-23T10:47:05.992Z,228.00
2022-08-23T10:48:05.998Z,232.00
2022-08-23T10:49:06.002Z,224.00
2022-08-23T10:50:06.004Z,228.00
2022-08-23T10:51:06.004Z,232.00
2022-08-23T10:52:06.013Z,228.00
2022-08-23T10:53:06.015Z,228.00
2022-08-23T10:54:06.229Z,228.00
2022-08-23T10:55:06.029Z,228.00
2022-08-23T10:56:06.028Z,232.00
2022-08-23T10:57:06.035Z,216.00
2022-08-23T10:58:06.033Z,228.00
2022-08-23T10:59:06.042Z,220.00
2022-08-23T11:00:06.044Z,216.00
2022-08-23T11:01:06.062Z,212.00
2022-08-23T11:02:06.052Z,220.00
2022-08-23T11:03:06.111Z,216.00
2022-08-23T11:04:06.071Z,216.00
2022-08-23T11:05:06.056Z,212.00
2022-08-23T11:06:06.062Z,208.00
2022-08-23T11:07:06.101Z,208.00
2022-08-23T11:08:06.075Z,208.00
2022-08-23T11:09:06.072Z,212.00
2022-08-23T11:10:06.078Z,212.00
2022-08-23T11:11:06.077Z,208.00
2022-08-23T11:12:07.152Z,208.00
2022-08-23T11:13:06.086Z,212.00
2022-08-23T11:14:06.092Z,212.00
2022-08-23T11:15:06.094Z,204.00
2022-08-23T11:16:06.133Z,204.00
2022-08-23T11:17:06.113Z,208.00
2022-08-23T11:18:06.107Z,220.00
2022-08-23T11:19:06.108Z,220.00
2022-08-23T11:20:06.140Z,220.00
2022-08-23T11:21:06.116Z,220.00
2022-08-23T11:22:06.119Z,220.00
2022-08-23T11:23:06.125Z,224.00
2022-08-23T11:24:06.128Z,224.00
2022-08-23T11:25:06.132Z,224.00
2022-08-23T11:26:06.140Z,236.00
2022-08-23T11:27:07.090Z,248.00
2022-08-23T11:28:06.148Z,244.00
2022-08-23T11:29:06.175Z,236.00
2022-08-23T11:30:06.150Z,232.00
2022-08-23T11:31:06.205Z,228.00
2022-08-23T11:32:06.158Z,228.00
2022-08-23T11:33:06.162Z,220.00
2022-08-23T11:34:06.166Z,212.00
2022-08-23T11:35:06.311Z,208.00
2022-08-23T11:36:06.172Z,208.00
2022-08-23T11:37:06.176Z,204.00
2022-08-23T11:38:06.224Z,200.00
2022-08-23T11:39:06.181Z,196.00
2022-08-23T11:40:06.248Z,196.00
2022-08-23T11:41:06.190Z,200.00
2022-08-23T11:42:06.196Z,208.00
2022-08-23T11:43:06.201Z,216.00
2022-08-23T11:44:06.199Z,212.00
2022-08-23T11:45:06.205Z,208.00
2022-08-23T11:46:06.241Z,204.00
2022-08-23T11:47:06.212Z,212.00
2022-08-23T11:48:06.215Z,204.00
2022-08-23T11:49:06.220Z,200.00
2022-08-23T11:50:06.225Z,196.00
2022-08-23T11:51:06.227Z,200.00
2022-08-23T11:52:06.230Z,196.00
2022-08-23T11:53:06.244Z,200.00
2022-08-23T11:54:06.493Z,192.00
2022-08-23T11:55:06.246Z,196.00
2022-08-23T11:56:06.249Z,188.00
2022-08-23T11:57:06.253Z,180.00
2022-08-23T11:58:06.254Z,176.00
2022-08-23T11:59:08.657Z,184.00
2022-08-23T12:00:06.261Z,184.00
2022-08-23T12:01:06.269Z,184.00
2022-08-23T12:02:06.436Z,188.00
2022-08-23T12:03:06.413Z,192.00
2022-08-23T12:04:06.458Z,192.00
2022-08-23T12:05:06.897Z,188.00
2022-08-23T12:06:06.282Z,188.00
2022-08-23T12:07:06.290Z,192.00
2022-08-23T12:08:06.289Z,180.00
2022-08-23T12:09:06.295Z,168.00
2022-08-23T12:10:06.298Z,168.00
2022-08-23T12:11:06.312Z,212.00
2022-08-23T12:12:06.644Z,232.00
2022-08-23T12:13:06.312Z,220.00
2022-08-23T12:14:06.313Z,204.00
2022-08-23T12:15:06.318Z,188.00
2022-08-23T12:16:06.384Z,168.00
2022-08-23T12:17:06.328Z,200.00
2022-08-23T12:18:06.344Z,312.00
2022-08-23T12:19:06.334Z,232.00
2022-08-23T12:20:06.338Z,216.00
2022-08-23T12:21:06.341Z,208.00
2022-08-23T12:22:06.354Z,212.00
2022-08-23T12:23:06.349Z,216.00
2022-08-23T12:24:06.352Z,212.00
2022-08-23T12:25:06.357Z,196.00
2022-08-23T12:26:06.360Z,200.00
2022-08-23T12:27:06.362Z,212.00
2022-08-23T12:28:06.367Z,256.00
2022-08-23T12:29:06.372Z,332.00
2022-08-23T12:30:06.376Z,400.00
2022-08-23T12:31:07.948Z,388.00
2022-08-23T12:32:06.384Z,328.00
2022-08-23T12:33:06.387Z,360.00
2022-08-23T12:34:06.391Z,392.00
2022-08-23T12:35:06.396Z,340.00
2022-08-23T12:36:06.715Z,372.00
2022-08-23T12:37:09.350Z,368.00
2022-08-23T12:38:06.412Z,392.00
2022-08-23T12:39:06.422Z,344.00
2022-08-23T12:40:06.463Z,380.00
2022-08-23T12:41:06.420Z,388.00
2022-08-23T12:42:06.943Z,348.00
2022-08-23T12:43:06.431Z,260.00
2022-08-23T12:44:06.431Z,232.00
2022-08-23T12:45:06.442Z,228.00